createdAt,value
2023-03-20T00:02:34.583Z,5.70
2023-03-20T00:07:38.065Z,6.00
2023-03-20T00:12:41.450Z,5.65
2023-03-20T00:17:50.753Z,5.60
2023-03-20T00:22:54.709Z,5.30
2023-03-20T00:27:59.889Z,6.10
2023-03-20T00:33:07.060Z,5.13
2023-03-20T00:38:15.158Z,5.32
2023-03-20T01:29:32.059Z,4.88
2023-03-20T02:44:15.837Z,4.40
2023-03-20T02:49:37.122Z,4.07
2023-03-20T02:54:50.571Z,4.00
2023-03-20T03:00:05.345Z,3.83
2023-03-20T03:05:14.679Z,4.05
2023-03-20T03:10:22.824Z,4.45
2023-03-20T03:15:35.215Z,4.05
2023-03-20T04:16:25.410Z,3.63
2023-03-20T04:21:36.378Z,4.03
2023-03-20T05:22:34.157Z,4.10
2023-03-20T05:27:39.929Z,4.32
2023-03-20T05:32:45.186Z,4.90
2023-03-20T05:37:53.371Z,4.90
2023-03-20T05:43:00.647Z,3.97
2023-03-20T05:48:05.859Z,4.72
2023-03-20T05:58:20.259Z,3.70
2023-03-20T06:03:25.664Z,3.60
2023-03-20T06:08:32.609Z,3.63
2023-03-20T06:13:43.058Z,3.90
2023-03-20T06:18:49.778Z,3.75
2023-03-20T06:23:56.996Z,3.97
2023-03-20T06:29:12.305Z,3.55
2023-03-20T06:34:20.262Z,3.15
2023-03-20T06:39:30.928Z,3.58
2023-03-20T06:44:37.523Z,3.03
2023-03-20T06:49:59.696Z,3.22
2023-03-20T06:55:06.872Z,3.22
2023-03-20T07:00:16.838Z,2.80
2023-03-20T07:05:31.313Z,3.08
2023-03-20T07:10:38.257Z,2.90
2023-03-20T07:16:02.993Z,3.00
2023-03-20T07:21:38.826Z,3.08
2023-03-20T07:26:42.990Z,2.90
2023-03-20T07:31:53.159Z,2.60
2023-03-20T07:36:58.007Z,2.30
2023-03-20T07:42:19.728Z,2.38
2023-03-20T07:47:48.766Z,2.28
2023-03-20T07:52:55.421Z,2.25
2023-03-20T07:58:22.895Z,2.35
2023-03-20T08:03:33.693Z,2.45
2023-03-20T08:08:45.716Z,2.30
2023-03-20T11:04:05.242Z,2.95
2023-03-20T11:09:30.383Z,3.63
2023-03-20T13:20:22.219Z,1.80
2023-03-20T13:26:00.702Z,2.05
2023-03-20T13:31:21.023Z,1.95
2023-03-20T13:36:41.567Z,2.00
2023-03-20T13:42:42.137Z,2.08
2023-03-20T14:49:16.864Z,1.95
2023-03-20T14:54:30.497Z,1.58
2023-03-20T14:59:36.152Z,2.13
2023-03-20T15:04:43.383Z,3.17
2023-03-20T15:09:53.127Z,2.58
2023-03-20T15:15:44.807Z,2.20
2023-03-20T15:20:24.103Z,2.13
2023-03-20T15:25:46.922Z,2.00
2023-03-20T15:30:54.155Z,1.80
2023-03-20T15:35:59.288Z,1.83
2023-03-20T15:41:14.864Z,1.70
2023-03-20T15:46:22.222Z,1.80
2023-03-20T15:51:28.945Z,1.75
2023-03-20T15:56:49.837Z,1.63
2023-03-20T16:01:58.586Z,2.00
2023-03-20T16:07:04.239Z,1.48
2023-03-20T16:12:19.926Z,1.77
2023-03-20T16:17:29.084Z,1.90
2023-03-20T16:22:35.063Z,1.80
2023-03-20T16:27:52.824Z,2.15
2023-03-20T16:33:01.808Z,2.13
2023-03-20T16:38:21.085Z,1.85
2023-03-20T16:43:34.000Z,1.80
2023-03-20T16:48:40.194Z,1.75
2023-03-20T16:53:51.419Z,2.42
2023-03-20T16:58:59.512Z,2.70
2023-03-20T17:04:21.349Z,4.35
2023-03-20T17:09:30.720Z,3.60
2023-03-20T17:14:35.441Z,3.40
2023-03-20T17:19:45.675Z,3.80
2023-03-20T17:24:52.999Z,2.60
2023-03-20T17:29:57.616Z,3.20
2023-03-20T17:35:03.456Z,3.42
2023-03-20T17:40:08.833Z,4.25
2023-03-20T17:45:17.976Z,4.10
2023-03-20T17:50:29.806Z,3.08
2023-03-20T17:55:46.129Z,2.67
2023-03-20T18:00:58.081Z,2.20
2023-03-20T18:06:07.329Z,1.48
2023-03-20T18:11:10.742Z,1.77
2023-03-20T18:16:19.894Z,2.30
2023-03-20T18:21:24.413Z,3.70
2023-03-20T18:26:28.714Z,2.58
2023-03-20T18:31:33.449Z,4.90
2023-03-20T18:36:43.760Z,6.18
2023-03-20T18:41:48.543Z,7.43
2023-03-20T18:46:54.341Z,7.00
2023-03-20T18:52:03.307Z,6.47
2023-03-20T18:57:16.733Z,5.53
2023-03-20T19:02:30.794Z,5.13
2023-03-20T19:07:35.459Z,4.60
2023-03-20T20:02:11.813Z,5.70
2023-03-20T20:07:56.208Z,5.15
2023-03-20T20:12:40.524Z,5.43
2023-03-20T20:17:48.240Z,5.77
2023-03-20T20:22:56.416Z,6.63
2023-03-20T20:28:17.306Z,7.25
2023-03-20T20:33:36.975Z,5.40
2023-03-20T20:38:50.719Z,4.15
2023-03-20T20:44:15.198Z,5.90
2023-03-20T20:49:35.868Z,5.40
2023-03-20T20:54:43.185Z,6.05
2023-03-20T20:59:46.362Z,6.25
2023-03-20T21:04:52.784Z,5.93
2023-03-20T21:09:55.943Z,7.05
2023-03-20T21:15:09.739Z,5.90
2023-03-20T21:20:22.512Z,6.25
2023-03-20T21:25:39.188Z,6.20
2023-03-20T21:31:12.546Z,5.75
2023-03-20T21:36:53.954Z,6.10
2023-03-20T23:41:57.337Z,8.20
2023-03-20T23:46:52.559Z,9.50
2023-03-20T23:51:55.725Z,9.32
2023-03-20T23:57:09.154Z,8.63
